Aviation Digital Data Service (ADDS)

Output produced by METARs form (2058 UTC 19 February 2017)
found at http://www.aviationweather.gov/adds/metars/
 
KMDT 192056Z 32013KT 10SM FEW250 19/01 A2988 RMK AO2 SLP118 T01940011 53005
KMDT 191956Z 31014G22KT 10SM FEW250 21/01 A2987 RMK AO2 SLP114 T02060011
KMDT 191856Z 29012KT 10SM FEW200 19/03 A2986 RMK AO2 SLP113 T01940033
KMDT 191756Z 31011KT 10SM FEW190 FEW250 19/04 A2986 RMK AO2 SLP113 T01890039 10194 20100 58007
KMDT 191656Z 31013KT 10SM SCT180 BKN250 18/06 A2988 RMK AO2 SLP118 T01780056
KMDT 191556Z 31011KT 10SM FEW120 18/06 A2989 RMK AO2 SLP122 T01780061
KMDT 191456Z 30011KT 10SM FEW100 FEW250 16/06 A2989 RMK AO2 SLP121 T01560061 51018
KMDT 191356Z 30008KT 10SM FEW110 SCT250 14/06 A2988 RMK AO2 SLP118 T01440061
KMDT 191256Z 30006KT 10SM FEW100 SCT250 11/04 A2986 RMK AO2 SLP112 T01060044
KMDT 191156Z 33006KT 10SM BKN110 12/04 A2983 RMK AO2 SLP102 T01220039 10133 20078 53020
KMDT 191056Z 30009KT 10SM OVC095 12/03 A2981 RMK AO2 SLP093 T01170028
KMDT 190956Z 32008KT 10SM BKN110 12/02 A2979 RMK AO2 SLP088 T01220022
KMDT 190856Z 34004KT 10SM BKN100 12/02 A2977 RMK AO2 SLP081 T01170017 51005
KMDT 190756Z 33003KT 10SM OVC100 09/03 A2977 RMK AO2 SLP082 T00890028
KMDT 190656Z 00000KT 10SM SCT120 08/02 A2976 RMK AO2 SLP079 T00780022
KMDT 190556Z 00000KT 10SM BKN140 09/02 A2976 RMK AO2 SLP077 T00940017 10161 20072 53012
KMDT 190456Z 11007KT 10SM FEW120 09/02 A2974 RMK AO2 SLP074 T00890017 402001033
KMDT 190356Z 14006KT 10SM SCT150 08/02 A2973 RMK AO2 SLP070 T00780022
KMDT 190256Z 14003KT 10SM BKN250 08/02 A2972 RMK AO2 SLP066 T00780022 53002
KMDT 190156Z 00000KT 10SM BKN250 12/00 A2971 RMK AO2 SLP064 T01170000
KMDT 190056Z 21008KT 10SM BKN250 13/01 A2971 RMK AO2 SLP064 T01280011
KMDT 182356Z 24011KT 10SM BKN250 16/01 A2972 RMK AO2 SLP065 T01610006 10200 20150 53012
KMDT 182256Z 21007KT 10SM BKN250 18/00 A2970 RMK AO2 SLP058 T01780000
KMDT 182156Z 24008KT 10SM BKN250 19/00 A2969 RMK AO2 SLP057 T01940000
KMDT 182056Z 23010G16KT 10SM BKN250 18/01 A2968 RMK AO2 SLP052 T01780006 56014
KMDT 181956Z 26009G23KT 10SM BKN250 20/M02 A2969 RMK AO2 PK WND 23026/1929 SLP054 T02001017
KMDT 181856Z 23013G20KT 10SM BKN250 19/M01 A2970 RMK AO2 SLP059 T01891006
KMDT 181756Z VRB04KT 10SM SCT250 16/M01 A2972 RMK AO2 SLP066 T01611006 10161 21033 58042
KMDT 181656Z 00000KT 10SM SCT250 09/M03 A2977 RMK AO2 SLP084 T00941028
KMDT 181556Z 24003KT 10SM SCT250 07/M03 A2981 RMK AO2 SLP098 T00721033
KMDT 181456Z 00000KT 10SM FEW250 05/M02 A2985 RMK AO2 SLP110 T00501022 50002
KMDT 181356Z 00000KT 9SM SCT250 02/M02 A2986 RMK AO2 SLP117 T00221017
KMDT 181256Z 09004KT 9SM SCT250 00/M03 A2986 RMK AO2 SLP116 T00001033
KMDT 181156Z 00000KT 10SM FEW250 M03/M06 A2984 RMK AO2 SLP109 T10281056 11011 21033 58008
KMDT 181056Z 00000KT 10SM CLR M02/M05 A2985 RMK AO2 SLP111 T10221050
KMDT 180956Z 10003KT 10SM CLR M01/M04 A2986 RMK AO2 SLP115 T10111044